Time;durP1;ratioP1;P1;durP2;ratioP2;P2;SDS_P1;SDS_P2;PMS_P1;PMS_P2;Temp;Humidity;BMP_temperature;BMP_pressure;BME280_temperature;BME280_humidity;BME280_pressure;Samples;Min_cycle;Max_cycle;Signal;HPM_P1;HPM_P2
2023/06/26 00:00:26;;;;;;;7.30;6.60;;;20.60;85.40;;;;;;4898364;29;20195;-63
2023/06/26 00:02:52;;;;;;;9.10;8.20;;;20.60;85.70;;;;;;4901541;29;20221;-61
2023/06/26 00:05:17;;;;;;;8.13;7.33;;;20.60;85.90;;;;;;4901006;29;20184;-63
2023/06/26 00:07:43;;;;;;;8.67;7.77;;;20.50;86.70;;;;;;4898670;29;20191;-63
2023/06/26 00:10:09;;;;;;;8.50;7.70;;;20.50;87.00;;;;;;4901137;29;20250;-62
2023/06/26 00:12:34;;;;;;;7.93;7.17;;;20.50;87.30;;;;;;4907250;29;20727;-62
2023/06/26 00:15:00;;;;;;;7.80;7.10;;;20.40;88.00;;;;;;4901179;29;20454;-62
2023/06/26 00:17:26;;;;;;;8.77;7.87;;;20.40;88.20;;;;;;4908855;29;20224;-61
2023/06/26 00:19:52;;;;;;;8.37;7.53;;;20.50;88.20;;;;;;4905106;29;20236;-61
2023/06/26 00:22:18;;;;;;;8.37;7.57;;;20.40;88.90;;;;;;4900534;29;20475;-63
2023/06/26 00:24:44;;;;;;;8.90;8.10;;;20.50;88.60;;;;;;4904129;29;20209;-61
2023/06/26 00:27:10;;;;;;;9.15;8.27;;;20.50;88.80;;;;;;4901379;29;20487;-63
2023/06/26 00:29:38;;;;;;;8.10;7.37;;;20.50;88.40;;;;;;4909613;29;20190;-61
2023/06/26 00:32:04;;;;;;;7.40;6.57;;;20.70;88.50;;;;;;4901019;29;20556;-61
2023/06/26 00:34:30;;;;;;;8.38;7.57;;;20.60;88.10;;;;;;4906177;29;20194;-61
2023/06/26 00:36:55;;;;;;;7.90;7.10;;;20.50;89.00;;;;;;4902458;29;20260;-62
2023/06/26 00:39:21;;;;;;;8.37;7.57;;;20.50;89.00;;;;;;4905940;29;20210;-62
2023/06/26 00:41:47;;;;;;;7.67;6.97;;;20.50;88.80;;;;;;4901591;29;20250;-61
2023/06/26 00:44:13;;;;;;;8.32;7.53;;;20.40;89.30;;;;;;4905438;29;20572;-62
2023/06/26 00:46:38;;;;;;;10.73;7.80;;;20.40;89.90;;;;;;4905483;29;20205;-62
2023/06/26 00:49:04;;;;;;;8.10;7.30;;;20.30;90.10;;;;;;4904418;29;20194;-62
2023/06/26 00:51:31;;;;;;;8.00;7.30;;;20.30;89.80;;;;;;4906074;29;20209;-62
2023/06/26 00:53:57;;;;;;;8.70;7.90;;;20.30;89.80;;;;;;4905404;29;20191;-61
2023/06/26 00:56:23;;;;;;;8.18;7.38;;;20.30;89.90;;;;;;4902540;29;20250;-61
2023/06/26 00:58:49;;;;;;;8.00;7.30;;;20.30;89.70;;;;;;4903161;29;20551;-63
2023/06/26 01:01:17;;;;;;;7.75;7.00;;;20.40;89.80;;;;;;4898075;29;20465;-64
2023/06/26 01:03:44;;;;;;;8.00;7.30;;;20.30;90.00;;;;;;4903101;29;20230;-61
2023/06/26 01:06:12;;;;;;;8.77;7.93;;;20.30;90.00;;;;;;4905481;29;20248;-62
2023/06/26 01:08:41;;;;;;;8.05;7.20;;;20.30;90.00;;;;;;4901838;29;20185;-63
2023/06/26 01:11:07;;;;;;;8.68;7.60;;;20.40;90.00;;;;;;4905250;29;20233;-62
2023/06/26 01:13:34;;;;;;;8.23;7.53;;;20.30;89.70;;;;;;4902577;29;20262;-62
2023/06/26 01:16:00;;;;;;;8.10;7.40;;;20.40;89.70;;;;;;4905561;29;20198;-62
2023/06/26 01:18:26;;;;;;;6.95;6.35;;;20.40;90.00;;;;;;4906406;29;20194;-62
2023/06/26 01:20:52;;;;;;;8.10;7.40;;;19.70;89.20;;;;;;4904223;29;20874;-61
2023/06/26 01:23:47;;;;;;;8.70;7.80;;;20.30;90.10;;;;;;4902239;29;20514;-62
2023/06/26 01:26:21;;;;;;;10.68;7.65;;;19.80;90.00;;;;;;4900953;29;20605;-62
2023/06/26 01:28:49;;;;;;;7.47;6.88;;;20.20;90.30;;;;;;4900059;29;20183;-62
2023/06/26 01:31:16;;;;;;;7.70;6.95;;;20.20;90.50;;;;;;4899727;29;20793;-62
2023/06/26 01:33:42;;;;;;;8.77;7.97;;;20.20;90.40;;;;;;4902162;29;20195;-62
2023/06/26 01:36:08;;;;;;;8.10;7.30;;;20.10;90.50;;;;;;4896460;29;20191;-61
2023/06/26 01:38:34;;;;;;;9.03;8.13;;;20.10;90.60;;;;;;4904309;29;20198;-62
2023/06/26 01:41:00;;;;;;;7.82;7.13;;;20.10;90.70;;;;;;4904687;29;20447;-62
2023/06/26 01:43:48;;;;;;;8.77;7.47;;;20.10;90.90;;;;;;4903192;29;20246;-63
2023/06/26 01:46:30;;;;;;;8.25;7.45;;;20.10;90.90;;;;;;4902986;29;20217;-62
2023/06/26 01:49:00;;;;;;;8.10;7.05;;;20.00;91.00;;;;;;4905373;29;20239;-63
2023/06/26 01:51:32;;;;;;;8.00;7.20;;;20.00;91.00;;;;;;4905876;29;20217;-62
2023/06/26 01:54:00;;;;;;;7.65;6.95;;;19.90;91.10;;;;;;4903270;29;20249;-62
2023/06/26 01:56:28;;;;;;;7.78;6.97;;;19.40;91.10;;;;;;4903109;29;20186;-62
2023/06/26 01:58:55;;;;;;;8.23;7.43;;;19.80;91.40;;;;;;4905352;29;20644;-62
2023/06/26 02:01:21;;;;;;;7.90;7.10;;;19.80;91.60;;;;;;4902974;29;20296;-62
2023/06/26 02:03:47;;;;;;;7.90;7.10;;;19.80;91.60;;;;;;4902949;29;20596;-62
2023/06/26 02:06:13;;;;;;;8.48;7.68;;;19.80;91.70;;;;;;4901710;29;20688;-62
2023/06/26 02:08:39;;;;;;;8.63;7.87;;;19.80;91.70;;;;;;4899971;29;20195;-62
2023/06/26 02:11:05;;;;;;;7.85;7.05;;;19.80;91.80;;;;;;4901406;29;20594;-62
2023/06/26 02:13:31;;;;;;;8.57;7.77;;;19.70;91.80;;;;;;4900087;29;20187;-62
2023/06/26 02:15:57;;;;;;;8.10;7.40;;;19.80;91.90;;;;;;4904311;29;20623;-63
2023/06/26 02:18:23;;;;;;;8.00;7.25;;;19.80;91.90;;;;;;4898568;29;20198;-62
2023/06/26 02:20:49;;;;;;;7.27;6.60;;;19.80;92.30;;;;;;4905651;29;20186;-62
2023/06/26 02:23:14;;;;;;;8.00;7.20;;;19.80;91.90;;;;;;4902133;29;20475;-62
2023/06/26 02:25:40;;;;;;;9.53;8.67;;;19.80;92.10;;;;;;4901500;29;20509;-62
2023/06/26 02:28:05;;;;;;;7.83;7.13;;;19.70;92.40;;;;;;4901008;29;20295;-63
2023/06/26 02:30:31;;;;;;;8.03;7.33;;;19.70;92.20;;;;;;4899822;29;20183;-62
2023/06/26 02:32:57;;;;;;;9.10;7.07;;;19.60;92.40;;;;;;4905451;29;20218;-62
2023/06/26 02:35:22;;;;;;;8.20;7.40;;;19.60;92.60;;;;;;4902382;29;20191;-62
2023/06/26 02:37:48;;;;;;;9.00;8.10;;;19.50;92.70;;;;;;4899440;29;20183;-62
2023/06/26 02:40:13;;;;;;;8.53;6.43;;;19.50;92.90;;;;;;4901507;29;20225;-62
2023/06/26 02:42:39;;;;;;;8.23;7.23;;;19.40;93.10;;;;;;4902596;29;21186;-61
2023/06/26 02:45:05;;;;;;;8.77;7.97;;;19.40;93.30;;;;;;4901201;29;20260;-61
2023/06/26 02:47:31;;;;;;;8.32;7.53;;;18.90;93.10;;;;;;4902975;29;20214;-61
2023/06/26 02:49:56;;;;;;;8.90;8.10;;;19.40;93.50;;;;;;4901511;29;20187;-62
2023/06/26 02:52:22;;;;;;;8.33;7.53;;;19.40;93.60;;;;;;4899242;29;20947;-61
2023/06/26 02:54:47;;;;;;;8.30;7.50;;;19.30;93.70;;;;;;4899886;29;20193;-62
2023/06/26 02:57:14;;;;;;;7.03;6.43;;;19.30;93.80;;;;;;4902862;29;20190;-62
2023/06/26 02:59:40;;;;;;;7.60;6.90;;;19.30;93.80;;;;;;4898620;29;20186;-62
2023/06/26 03:02:05;;;;;;;7.90;7.20;;;19.30;94.00;;;;;;4897335;29;20221;-62
2023/06/26 03:04:31;;;;;;;8.00;7.30;;;19.20;94.20;;;;;;4899957;29;20596;-62
2023/06/26 03:06:57;;;;;;;7.70;6.87;;;19.20;94.10;;;;;;4899579;29;20719;-62
2023/06/26 03:09:22;;;;;;;7.80;7.00;;;19.20;94.30;;;;;;4908545;29;20198;-62
2023/06/26 03:11:48;;;;;;;8.20;7.40;;;19.20;94.40;;;;;;4903463;29;20301;-62
2023/06/26 03:14:14;;;;;;;9.00;7.53;;;19.10;94.60;;;;;;4905060;29;20195;-63
2023/06/26 03:16:40;;;;;;;9.40;7.17;;;19.10;94.80;;;;;;4900147;29;20192;-62
2023/06/26 03:19:05;;;;;;;7.72;7.03;;;19.10;95.00;;;;;;4900998;29;20198;-62
2023/06/26 03:21:32;;;;;;;9.27;7.50;;;19.10;95.00;;;;;;4902091;29;20203;-62
2023/06/26 03:23:58;;;;;;;7.90;7.20;;;19.00;95.10;;;;;;4897967;29;20575;-62
2023/06/26 03:26:27;;;;;;;7.67;6.87;;;19.00;95.20;;;;;;4904562;29;20202;-62
2023/06/26 03:28:53;;;;;;;9.23;7.95;;;19.00;95.20;;;;;;4897149;29;20331;-62
2023/06/26 03:31:19;;;;;;;8.30;7.55;;;19.00;95.20;;;;;;4899336;29;20266;-62
2023/06/26 03:33:45;;;;;;;8.50;7.60;;;19.00;95.40;;;;;;4900534;29;20562;-62
2023/06/26 03:36:10;;;;;;;8.80;7.90;;;19.00;95.40;;;;;;4898286;29;20194;-62
2023/06/26 03:38:36;;;;;;;8.80;7.90;;;19.00;95.40;;;;;;4901295;29;20453;-62
2023/06/26 03:41:02;;;;;;;7.43;6.73;;;19.10;95.40;;;;;;4903523;29;20194;-62
2023/06/26 03:43:28;;;;;;;7.90;7.07;;;19.00;95.40;;;;;;4901976;29;20213;-62
2023/06/26 03:45:54;;;;;;;7.87;7.17;;;19.10;95.40;;;;;;4903594;29;20811;-62
2023/06/26 03:48:19;;;;;;;10.47;7.83;;;19.10;95.50;;;;;;4909837;29;20202;-62
2023/06/26 03:50:45;;;;;;;8.87;8.07;;;19.10;95.50;;;;;;4905620;29;20909;-62
2023/06/26 03:53:11;;;;;;;9.50;8.60;;;19.10;95.50;;;;;;4899488;29;20306;-63
2023/06/26 03:55:38;;;;;;;8.17;7.37;;;19.10;95.70;;;;;;4906963;29;20186;-61
2023/06/26 03:58:04;;;;;;;8.80;8.00;;;19.10;95.70;;;;;;4903668;29;20186;-62
2023/06/26 04:00:30;;;;;;;8.68;7.88;;;19.10;95.70;;;;;;4907707;29;20653;-63
2023/06/26 04:02:55;;;;;;;8.17;7.37;;;19.20;95.70;;;;;;4908068;29;20218;-61
2023/06/26 04:05:21;;;;;;;8.90;8.10;;;19.20;95.70;;;;;;4906963;29;20447;-63
2023/06/26 04:07:52;;;;;;;8.30;7.57;;;19.20;95.60;;;;;;4905823;29;20518;-62
2023/06/26 04:10:18;;;;;;;7.97;6.88;;;19.20;95.50;;;;;;4897387;29;20670;-62
2023/06/26 04:12:44;;;;;;;8.23;7.43;;;19.30;95.60;;;;;;4901220;29;20736;-61
2023/06/26 04:15:09;;;;;;;8.00;7.20;;;19.30;95.40;;;;;;4905072;29;20826;-69
2023/06/26 04:17:35;;;;;;;8.10;7.40;;;19.40;95.30;;;;;;4903686;29;20192;-73
2023/06/26 04:20:01;;;;;;;7.97;7.17;;;19.60;95.10;;;;;;4914110;29;20707;-72
2023/06/26 04:22:26;;;;;;;6.90;6.20;;;19.70;94.90;;;;;;4908175;29;20222;-73
2023/06/26 04:24:52;;;;;;;8.23;7.43;;;19.80;94.90;;;;;;4902223;29;20273;-75
2023/06/26 04:27:18;;;;;;;8.93;7.77;;;19.90;94.60;;;;;;4920621;29;20652;-72
2023/06/26 04:29:44;;;;;;;8.02;7.25;;;20.00;94.20;;;;;;4916201;29;20280;-71
2023/06/26 04:32:09;;;;;;;8.40;7.70;;;20.20;94.00;;;;;;4908923;29;20214;-75
2023/06/26 04:34:36;;;;;;;7.33;6.63;;;20.30;93.70;;;;;;4904887;29;20583;-74
2023/06/26 04:37:04;;;;;;;8.43;7.63;;;20.40;93.50;;;;;;4908723;29;20648;-71
2023/06/26 04:39:30;;;;;;;7.97;7.28;;;20.40;93.40;;;;;;4909248;29;20186;-73
2023/06/26 04:41:56;;;;;;;13.82;8.23;;;20.50;93.20;;;;;;4900919;29;20229;-75
2023/06/26 04:44:21;;;;;;;7.63;6.90;;;20.70;93.40;;;;;;4903035;29;20255;-73
2023/06/26 04:46:47;;;;;;;9.20;7.57;;;20.70;93.30;;;;;;4907876;29;20209;-72
2023/06/26 04:49:13;;;;;;;8.13;7.33;;;20.80;93.50;;;;;;4905000;29;20190;-72
2023/06/26 04:51:41;;;;;;;8.13;7.43;;;20.90;93.10;;;;;;4908913;29;20577;-72
2023/06/26 04:54:08;;;;;;;7.20;6.53;;;21.00;93.40;;;;;;4906187;29;20808;-71
2023/06/26 04:56:34;;;;;;;8.50;7.70;;;21.20;92.90;;;;;;4907107;29;20558;-74
2023/06/26 04:58:59;;;;;;;9.00;8.13;;;21.40;92.50;;;;;;4907577;29;20444;-75
2023/06/26 05:01:29;;;;;;;8.30;7.50;;;21.50;92.20;;;;;;4905587;29;20463;-72
2023/06/26 05:03:58;;;;;;;8.30;7.53;;;21.50;92.00;;;;;;4901325;29;20198;-71
2023/06/26 05:06:23;;;;;;;8.43;7.40;;;21.60;92.10;;;;;;4902067;29;20454;-72
2023/06/26 05:08:49;;;;;;;8.40;7.40;;;21.70;92.00;;;;;;4909205;29;20955;-71
2023/06/26 05:11:15;;;;;;;8.70;7.90;;;21.80;92.00;;;;;;4904459;29;20244;-71
2023/06/26 05:13:41;;;;;;;8.17;7.10;;;21.80;91.90;;;;;;4899548;29;20203;-74
2023/06/26 05:16:08;;;;;;;10.13;7.70;;;22.00;91.80;;;;;;4901318;29;20182;-79
2023/06/26 05:18:35;;;;;;;8.17;7.40;;;22.00;91.70;;;;;;4904231;29;20191;-74
2023/06/26 05:21:01;;;;;;;7.37;6.77;;;22.10;91.60;;;;;;4906525;29;20533;-78
2023/06/26 05:23:30;;;;;;;8.60;7.77;;;22.30;91.50;;;;;;4904079;29;20471;-70
2023/06/26 05:25:56;;;;;;;8.83;8.00;;;22.30;91.10;;;;;;4895070;29;20832;-66
2023/06/26 05:28:24;;;;;;;8.10;7.30;;;22.40;90.50;;;;;;4898945;29;20465;-64
2023/06/26 05:30:50;;;;;;;7.67;6.97;;;22.50;90.60;;;;;;4903015;29;20293;-67
2023/06/26 05:33:19;;;;;;;8.43;7.53;;;25.10;92.10;;;;;;4901566;29;20446;-69
2023/06/26 05:35:45;;;;;;;8.17;7.47;;;22.60;90.30;;;;;;4903550;29;20575;-67
2023/06/26 05:38:13;;;;;;;8.07;7.33;;;22.00;89.60;;;;;;4898335;29;20450;-68
2023/06/26 05:40:40;;;;;;;8.33;7.50;;;22.80;90.00;;;;;;4906738;29;20816;-69
2023/06/26 05:43:06;;;;;;;8.30;7.40;;;22.90;89.70;;;;;;4901394;29;20884;-67
2023/06/26 05:45:32;;;;;;;8.33;7.53;;;23.10;89.20;;;;;;4905772;29;20538;-67
2023/06/26 05:47:57;;;;;;;8.77;7.97;;;23.20;89.30;;;;;;4904148;29;20538;-68
2023/06/26 05:50:23;;;;;;;8.57;7.77;;;23.30;88.50;;;;;;4902258;29;20234;-68
2023/06/26 05:52:49;;;;;;;7.83;7.13;;;23.40;87.60;;;;;;4900869;29;20466;-68
2023/06/26 05:55:15;;;;;;;8.93;7.90;;;23.50;87.60;;;;;;4903581;29;20451;-74
2023/06/26 05:57:42;;;;;;;9.03;8.20;;;23.70;88.00;;;;;;4904909;29;21050;-69
2023/06/26 06:00:10;;;;;;;8.93;8.13;;;23.80;86.70;;;;;;4901824;29;21064;-72
2023/06/26 06:02:39;;;;;;;8.50;7.70;;;24.00;86.40;;;;;;4904578;29;20549;-73
2023/06/26 06:05:06;;;;;;;8.80;8.00;;;24.10;85.80;;;;;;4899508;29;21036;-73
2023/06/26 06:07:32;;;;;;;8.47;7.67;;;24.30;85.40;;;;;;4900264;29;20443;-72
2023/06/26 06:09:58;;;;;;;7.40;6.70;;;24.40;84.80;;;;;;4910765;29;20467;-71
2023/06/26 06:12:24;;;;;;;9.63;7.80;;;24.50;83.60;;;;;;4904131;29;20471;-74
2023/06/26 06:14:49;;;;;;;8.53;7.43;;;24.70;83.10;;;;;;4901557;29;20466;-73
2023/06/26 06:17:15;;;;;;;9.93;8.90;;;24.80;82.40;;;;;;4906675;29;20648;-71
2023/06/26 06:19:41;;;;;;;11.23;8.20;;;24.90;83.00;;;;;;4907074;29;20195;-72
2023/06/26 06:22:06;;;;;;;8.87;7.50;;;25.00;81.40;;;;;;4899894;29;20215;-73
2023/06/26 06:24:32;;;;;;;8.77;7.37;;;25.20;81.00;;;;;;4903023;29;20200;-71
2023/06/26 06:26:57;;;;;;;8.63;7.83;;;25.30;78.90;;;;;;4900255;29;20201;-71
2023/06/26 06:29:23;;;;;;;8.07;7.33;;;25.60;79.10;;;;;;4902102;29;20186;-70
2023/06/26 06:31:49;;;;;;;7.50;6.90;;;25.80;78.40;;;;;;4904499;29;20680;-75
2023/06/26 06:34:14;;;;;;;8.87;7.90;;;26.00;77.10;;;;;;4905848;29;20188;-75
2023/06/26 06:36:40;;;;;;;7.90;7.20;;;26.10;77.00;;;;;;4901022;29;20191;-74
2023/06/26 06:39:05;;;;;;;9.70;7.90;;;26.20;75.80;;;;;;4908951;29;20193;-69
2023/06/26 06:41:31;;;;;;;7.53;6.70;;;26.20;75.20;;;;;;4909162;29;20210;-69
2023/06/26 06:43:57;;;;;;;7.70;7.00;;;26.30;74.40;;;;;;4901280;29;20208;-72
2023/06/26 06:46:22;;;;;;;8.20;7.50;;;26.40;74.40;;;;;;4895167;29;20206;-76
2023/06/26 06:48:48;;;;;;;10.27;7.50;;;26.40;73.10;;;;;;4899680;29;20240;-75
2023/06/26 06:51:14;;;;;;;9.13;8.23;;;26.60;73.10;;;;;;4905504;29;20305;-73
2023/06/26 06:53:39;;;;;;;10.17;9.27;;;26.60;74.10;;;;;;4906404;29;20376;-72
2023/06/26 06:56:05;;;;;;;9.07;8.20;;;26.60;74.80;;;;;;4898623;29;20194;-72
2023/06/26 06:58:33;;;;;;;8.90;8.10;;;26.70;74.10;;;;;;4903935;29;20559;-72
2023/06/26 07:00:59;;;;;;;8.30;7.20;;;26.80;73.10;;;;;;4899929;29;20660;-74
2023/06/26 07:03:25;;;;;;;8.90;8.00;;;27.00;71.60;;;;;;4896263;29;20482;-73
2023/06/26 07:05:50;;;;;;;8.53;7.63;;;27.60;70.70;;;;;;4903331;29;20894;-75
2023/06/26 07:08:16;;;;;;;7.60;6.90;;;28.90;66.70;;;;;;4907118;29;20183;-72
2023/06/26 07:10:42;;;;;;;9.27;7.27;;;31.10;60.40;;;;;;4900688;29;20185;-71
2023/06/26 07:13:07;;;;;;;8.13;6.43;;;33.00;55.50;;;;;;4904130;29;20227;-72
2023/06/26 07:15:33;;;;;;;6.53;6.03;;;34.30;51.00;;;;;;4900973;29;20693;-72
2023/06/26 07:17:58;;;;;;;6.10;5.50;;;35.70;47.00;;;;;;4904440;29;20206;-73
2023/06/26 07:20:24;;;;;;;7.43;6.73;;;36.60;44.50;;;;;;4905385;29;20202;-73
2023/06/26 07:22:50;;;;;;;7.10;6.47;;;37.60;42.50;;;;;;4908709;29;20234;-72
2023/06/26 07:25:15;;;;;;;8.53;7.73;;;39.30;39.30;;;;;;4899079;29;20213;-70
2023/06/26 07:27:42;;;;;;;8.60;7.90;;;39.90;37.40;;;;;;4902274;29;20208;-71
2023/06/26 07:30:09;;;;;;;7.73;7.03;;;39.10;38.50;;;;;;4900454;29;20186;-70
2023/06/26 07:32:36;;;;;;;7.23;6.67;;;41.40;36.30;;;;;;4899148;29;20478;-67
2023/06/26 07:35:01;;;;;;;9.87;7.90;;;43.10;33.60;;;;;;4898014;29;20450;-70
2023/06/26 07:37:27;;;;;;;9.33;8.47;;;44.20;31.40;;;;;;4902120;29;20489;-68
2023/06/26 07:39:52;;;;;;;8.63;7.93;;;44.30;30.30;;;;;;4899858;29;20297;-67
2023/06/26 07:42:18;;;;;;;8.37;7.70;;;44.20;30.20;;;;;;4901668;29;20692;-69
2023/06/26 07:44:44;;;;;;;8.93;8.07;;;45.20;29.40;;;;;;4906270;29;20193;-69
2023/06/26 07:47:10;;;;;;;9.67;8.10;;;45.10;29.40;;;;;;4906535;29;20206;-69
2023/06/26 07:49:35;;;;;;;9.23;8.33;;;44.50;28.80;;;;;;4904782;29;20624;-70
2023/06/26 07:52:02;;;;;;;7.90;7.30;;;44.00;29.70;;;;;;4903813;29;20210;-75
2023/06/26 07:54:27;;;;;;;9.23;8.53;;;45.00;28.80;;;;;;4906982;29;20190;-73
2023/06/26 07:57:01;;;;;;;10.07;9.37;;;44.50;28.40;;;;;;4905305;29;20873;-73
2023/06/26 07:59:28;;;;;;;8.10;7.50;;;43.10;29.20;;;;;;4904352;29;20186;-72
2023/06/26 08:01:55;;;;;;;8.87;8.17;;;42.70;29.80;;;;;;4899518;29;20528;-68
2023/06/26 08:04:23;;;;;;;7.73;7.13;;;42.40;30.20;;;;;;4905958;29;20453;-68
2023/06/26 08:06:50;;;;;;;7.70;7.10;;;42.90;29.60;;;;;;4902854;29;20507;-67
2023/06/26 08:09:16;;;;;;;7.83;7.17;;;43.90;29.40;;;;;;4904977;29;20803;-67
2023/06/26 08:11:42;;;;;;;8.30;7.23;;;42.90;29.30;;;;;;4901090;29;20466;-67
2023/06/26 08:14:08;;;;;;;7.50;6.90;;;43.70;29.50;;;;;;4899881;29;20526;-71
2023/06/26 08:16:33;;;;;;;7.47;6.87;;;43.40;28.80;;;;;;4904156;29;20544;-69
2023/06/26 08:19:00;;;;;;;7.97;7.37;;;43.50;29.10;;;;;;4901051;29;20198;-68
2023/06/26 08:21:25;;;;;;;7.77;6.97;;;43.90;28.80;;;;;;4897590;29;20218;-69
2023/06/26 08:23:51;;;;;;;7.37;6.87;;;43.80;28.50;;;;;;4900799;29;20857;-69
2023/06/26 08:26:17;;;;;;;8.23;7.50;;;43.90;28.60;;;;;;4899889;29;20222;-69
2023/06/26 08:28:42;;;;;;;7.13;6.63;;;43.50;29.20;;;;;;4900300;29;20194;-67
2023/06/26 08:31:08;;;;;;;7.97;7.30;;;44.30;28.30;;;;;;4903294;29;20186;-67
2023/06/26 08:33:34;;;;;;;8.27;7.57;;;43.70;28.40;;;;;;4903923;29;20608;-67
2023/06/26 08:35:59;;;;;;;7.73;7.03;;;43.80;28.20;;;;;;4902644;29;20230;-67
2023/06/26 08:38:25;;;;;;;6.77;6.37;;;43.50;28.60;;;;;;4906293;29;20206;-67
2023/06/26 08:40:50;;;;;;;8.03;7.43;;;43.40;28.10;;;;;;4902929;29;20719;-70
2023/06/26 08:43:16;;;;;;;6.87;6.20;;;43.20;28.40;;;;;;4901576;29;20226;-67
2023/06/26 08:45:42;;;;;;;6.90;6.40;;;42.60;28.70;;;;;;4902855;29;20238;-67
2023/06/26 08:48:08;;;;;;;6.23;5.80;;;43.10;28.70;;;;;;4899294;29;20203;-68
2023/06/26 08:50:35;;;;;;;6.00;5.60;;;43.40;28.20;;;;;;4909475;29;20469;-68
2023/06/26 08:53:12;;;;;;;6.70;6.20;;;42.90;28.70;;;;;;4904610;29;20211;-71
2023/06/26 08:55:40;;;;;;;6.40;5.90;;;42.70;28.20;;;;;;4906212;29;20453;-70
2023/06/26 08:58:06;;;;;;;6.83;6.33;;;43.20;28.20;;;;;;4902736;29;21038;-68
2023/06/26 09:00:32;;;;;;;9.47;8.87;;;42.80;28.70;;;;;;4902232;29;20455;-68
2023/06/26 09:02:58;;;;;;;7.07;6.60;;;43.00;28.40;;;;;;4905380;29;20223;-68
2023/06/26 09:05:27;;;;;;;6.50;6.10;;;42.80;28.10;;;;;;4905055;29;20214;-70
2023/06/26 09:07:55;;;;;;;6.80;6.30;;;42.30;28.80;;;;;;4902688;29;20489;-69
2023/06/26 09:10:21;;;;;;;6.60;6.00;;;42.00;28.60;;;;;;4904283;29;21033;-69
2023/06/26 09:12:48;;;;;;;6.90;6.27;;;41.70;29.20;;;;;;4900739;29;20471;-68
2023/06/26 09:15:15;;;;;;;7.63;6.83;;;40.90;29.50;;;;;;4906350;29;20446;-68
2023/06/26 09:17:41;;;;;;;6.60;6.13;;;40.30;30.50;;;;;;4902996;29;20466;-67
2023/06/26 09:20:08;;;;;;;7.57;6.97;;;39.80;31.10;;;;;;4902429;29;20454;-66
2023/06/26 09:22:38;;;;;;;6.20;5.80;;;39.20;31.20;;;;;;4903261;29;21317;-66
2023/06/26 09:25:05;;;;;;;8.67;7.97;;;39.30;31.80;;;;;;4906964;29;20455;-68
2023/06/26 09:27:31;;;;;;;7.63;7.03;;;38.00;32.20;;;;;;4903218;29;20450;-69
2023/06/26 09:29:58;;;;;;;7.33;6.83;;;37.20;33.80;;;;;;4902802;29;22681;-67
2023/06/26 09:32:24;;;;;;;7.20;6.70;;;36.90;34.60;;;;;;4900967;29;20481;-65
2023/06/26 09:34:53;;;;;;;6.83;6.33;;;36.90;34.60;;;;;;4908632;29;20478;-64
2023/06/26 09:37:19;;;;;;;7.40;6.90;;;37.50;34.30;;;;;;4905040;29;20962;-69
2023/06/26 09:39:45;;;;;;;6.67;6.27;;;38.10;33.70;;;;;;4900376;29;20832;-68
2023/06/26 09:42:13;;;;;;;7.10;6.60;;;37.90;33.90;;;;;;4903150;29;20494;-72
2023/06/26 09:44:44;;;;;;;6.53;5.93;;;38.50;33.20;;;;;;4906554;29;20186;-69
2023/06/26 09:47:10;;;;;;;6.50;6.10;;;39.10;31.50;;;;;;4901076;29;20447;-69
2023/06/26 09:49:36;;;;;;;7.13;6.63;;;38.20;32.40;;;;;;4906222;29;20481;-69
2023/06/26 09:52:02;;;;;;;7.53;7.00;;;37.80;33.50;;;;;;4905435;29;20218;-68
2023/06/26 09:54:30;;;;;;;7.20;6.70;;;38.10;33.50;;;;;;4903569;29;20285;-67
2023/06/26 09:57:06;;;;;;;6.87;6.40;;;38.90;32.70;;;;;;4897752;29;20458;-67
2023/06/26 09:59:32;;;;;;;5.97;5.57;;;39.50;31.90;;;;;;4906962;29;20466;-68
2023/06/26 10:01:59;;;;;;;7.23;6.60;;;39.70;31.70;;;;;;4902127;29;20523;-68
2023/06/26 10:04:25;;;;;;;7.37;6.77;;;38.90;32.60;;;;;;4902010;29;20455;-68
2023/06/26 10:06:53;;;;;;;7.53;6.70;;;38.60;33.10;;;;;;4900173;29;20464;-68
2023/06/26 10:09:20;;;;;;;7.37;6.77;;;38.30;33.80;;;;;;4899413;29;20202;-69
2023/06/26 10:11:53;;;;;;;7.30;6.80;;;37.20;34.80;;;;;;4896201;29;20843;-67
2023/06/26 10:14:20;;;;;;;6.90;6.30;;;36.80;35.50;;;;;;4897184;29;20446;-68
2023/06/26 10:16:49;;;;;;;7.13;6.53;;;36.40;36.40;;;;;;4900830;29;20487;-68
2023/06/26 10:19:23;;;;;;;7.80;7.23;;;35.80;37.40;;;;;;4899337;29;20482;-67
2023/06/26 10:21:54;;;;;;;7.43;6.93;;;35.40;38.20;;;;;;4901614;29;20466;-67
2023/06/26 10:24:21;;;;;;;7.83;7.13;;;35.40;38.80;;;;;;4900401;29;21178;-67
2023/06/26 10:26:50;;;;;;;7.77;7.07;;;36.20;38.00;;;;;;4902258;29;20473;-68
2023/06/26 10:29:17;;;;;;;7.30;6.80;;;35.40;38.70;;;;;;4904851;29;20558;-68
2023/06/26 10:31:52;;;;;;;8.27;7.67;;;35.00;40.00;;;;;;4900288;29;20470;-67
2023/06/26 10:34:18;;;;;;;7.30;6.70;;;34.00;40.90;;;;;;4904067;29;20462;-67
2023/06/26 10:36:44;;;;;;;8.27;7.57;;;34.00;41.90;;;;;;4900339;29;20549;-72
2023/06/26 10:39:16;;;;;;;7.70;7.10;;;33.40;42.40;;;;;;4904943;29;20536;-72
2023/06/26 10:41:42;;;;;;;8.93;8.13;;;32.80;43.50;;;;;;4902931;29;20602;-71
2023/06/26 10:44:10;;;;;;;8.60;7.80;;;32.40;44.50;;;;;;4899870;29;20486;-71
2023/06/26 10:46:49;;;;;;;8.70;8.10;;;32.10;45.10;;;;;;4903813;29;20198;-71
2023/06/26 10:49:15;;;;;;;8.77;7.70;;;31.90;45.60;;;;;;4905433;29;20464;-71
2023/06/26 10:51:49;;;;;;;7.93;7.33;;;31.70;45.80;;;;;;4900426;29;20476;-71
2023/06/26 10:54:16;;;;;;;8.63;7.57;;;31.60;46.00;;;;;;4904584;29;20232;-71
2023/06/26 10:56:43;;;;;;;8.90;8.13;;;32.20;45.80;;;;;;4906169;29;21040;-71
2023/06/26 10:59:20;;;;;;;7.80;7.20;;;33.30;44.00;;;;;;4902824;29;20494;-71
2023/06/26 11:01:53;;;;;;;8.27;7.23;;;35.00;41.80;;;;;;4898976;29;20476;-71
2023/06/26 11:04:35;;;;;;;7.67;6.97;;;35.90;39.70;;;;;;4914118;29;20546;-71
2023/06/26 11:07:21;;;;;;;8.13;7.33;;;37.30;38.30;;;;;;4900926;29;20447;-72
2023/06/26 11:10:01;;;;;;;7.60;7.07;;;38.40;36.10;;;;;;4903873;29;20450;-72
2023/06/26 11:12:43;;;;;;;7.73;7.13;;;38.90;35.40;;;;;;4896290;29;20924;-71
2023/06/26 11:15:14;;;;;;;8.00;7.40;;;39.30;35.00;;;;;;4900959;29;20465;-72
2023/06/26 11:17:41;;;;;;;7.67;7.13;;;39.40;33.80;;;;;;4899060;29;20458;-75
2023/06/26 11:20:08;;;;;;;7.93;6.97;;;38.00;35.40;;;;;;4907535;29;20459;-75
2023/06/26 11:22:36;;;;;;;8.30;7.50;;;37.80;36.20;;;;;;4905582;29;20470;-73
2023/06/26 11:25:03;;;;;;;7.80;7.20;;;37.80;36.40;;;;;;4906984;29;20920;-74
2023/06/26 11:27:33;;;;;;;8.43;7.83;;;38.30;36.00;;;;;;4900099;29;20443;-72
2023/06/26 11:29:58;;;;;;;7.57;6.97;;;38.20;35.30;;;;;;4897744;29;20494;-71
2023/06/26 11:32:27;;;;;;;8.43;7.77;;;37.90;35.20;;;;;;4898458;29;21184;-71
2023/06/26 11:34:53;;;;;;;7.47;6.90;;;38.00;35.80;;;;;;4897070;29;20195;-72
2023/06/26 11:37:20;;;;;;;8.27;7.67;;;38.70;35.40;;;;;;4904162;29;20470;-71
2023/06/26 11:39:46;;;;;;;8.10;7.40;;;38.90;35.40;;;;;;4901864;29;20191;-73
2023/06/26 11:42:12;;;;;;;8.10;7.50;;;38.50;36.10;;;;;;4902551;29;20853;-71
2023/06/26 11:44:42;;;;;;;7.97;7.33;;;38.30;36.20;;;;;;4899101;29;20199;-71
2023/06/26 11:47:15;;;;;;;9.07;8.40;;;38.30;36.60;;;;;;4899600;29;20198;-70
2023/06/26 11:49:45;;;;;;;7.50;6.93;;;38.20;36.50;;;;;;4900601;29;20512;-70
2023/06/26 11:52:12;;;;;;;8.20;7.60;;;37.30;37.50;;;;;;4903804;29;20478;-74
2023/06/26 11:54:38;;;;;;;8.50;7.70;;;36.00;39.20;;;;;;4907047;29;20457;-73
2023/06/26 11:57:04;;;;;;;11.07;8.30;;;35.20;41.00;;;;;;4904355;29;20530;-73
2023/06/26 11:59:40;;;;;;;9.63;8.17;;;34.60;41.90;;;;;;4904363;29;20831;-74
2023/06/26 12:02:07;;;;;;;8.33;7.63;;;33.90;42.90;;;;;;4900215;29;20222;-68
2023/06/26 12:04:35;;;;;;;8.97;8.20;;;33.50;43.80;;;;;;4899741;29;20903;-72
2023/06/26 12:07:07;;;;;;;8.13;7.43;;;33.20;45.00;;;;;;4906313;29;20447;-71
2023/06/26 12:09:33;;;;;;;8.43;7.70;;;32.90;46.00;;;;;;4906501;29;21034;-72
2023/06/26 12:11:59;;;;;;;8.47;7.77;;;32.80;47.20;;;;;;4902185;29;21006;-72
2023/06/26 12:14:28;;;;;;;7.80;7.20;;;32.70;48.00;;;;;;4901479;29;20458;-69
2023/06/26 12:16:54;;;;;;;7.90;7.20;;;32.60;48.70;;;;;;4910581;29;20812;-72
2023/06/26 12:19:28;;;;;;;7.37;6.60;;;32.50;49.40;;;;;;4903957;29;20476;-70
2023/06/26 12:21:56;;;;;;;8.63;7.93;;;32.40;49.50;;;;;;4903315;29;20544;-70
2023/06/26 12:24:22;;;;;;;8.00;7.30;;;32.30;50.00;;;;;;4902284;29;20987;-70
2023/06/26 12:26:56;;;;;;;7.83;7.13;;;32.30;50.10;;;;;;4907156;29;20470;-69
2023/06/26 12:29:31;;;;;;;8.63;7.83;;;32.30;50.10;;;;;;4904352;29;20538;-79
2023/06/26 12:31:56;;;;;;;8.13;7.33;;;32.20;50.30;;;;;;4907773;29;21066;-75
2023/06/26 12:34:32;;;;;;;8.40;7.03;;;32.10;50.10;;;;;;4912693;29;20457;-78
2023/06/26 12:37:16;;;;;;;9.87;8.97;;;32.10;50.30;;;;;;4908643;29;20207;-78
2023/06/26 12:39:47;;;;;;;7.80;7.00;;;32.10;50.40;;;;;;4905341;29;20454;-68
2023/06/26 12:42:21;;;;;;;8.20;7.40;;;32.20;50.50;;;;;;4902391;29;20481;-67
2023/06/26 12:44:47;;;;;;;9.77;8.97;;;32.00;50.30;;;;;;4903760;29;20541;-70